sensor_id;sensor_type;location;lat;lon;timestamp;pressure;altitude;pressure_sealevel;temperature;humidity
9091;BME280;4581;42.416;25.598;2023-01-31T00:01:08;97852.53;;;0.37;100.00
9091;BME280;4581;42.416;25.598;2023-01-31T00:03:36;97854.47;;;0.35;100.00
9091;BME280;4581;42.416;25.598;2023-01-31T00:06:21;97856.97;;;0.36;100.00
9091;BME280;4581;42.416;25.598;2023-01-31T00:08:49;97856.38;;;0.44;100.00
9091;BME280;4581;42.416;25.598;2023-01-31T00:11:17;97860.28;;;0.50;100.00
9091;BME280;4581;42.416;25.598;2023-01-31T00:13:45;97859.72;;;0.46;100.00
9091;BME280;4581;42.416;25.598;2023-01-31T00:16:13;97857.44;;;0.41;100.00
9091;BME280;4581;42.416;25.598;2023-01-31T00:18:41;97861.41;;;0.47;100.00
9091;BME280;4581;42.416;25.598;2023-01-31T00:21:13;97855.44;;;0.34;100.00
9091;BME280;4581;42.416;25.598;2023-01-31T00:23:41;97838.97;;;0.30;100.00
9091;BME280;4581;42.416;25.598;2023-01-31T00:28:41;97853.16;;;0.29;100.00
9091;BME280;4581;42.416;25.598;2023-01-31T00:31:10;97859.63;;;0.36;100.00
9091;BME280;4581;42.416;25.598;2023-01-31T00:33:39;97860.63;;;0.35;100.00
9091;BME280;4581;42.416;25.598;2023-01-31T00:36:07;97849.28;;;0.33;100.00
9091;BME280;4581;42.416;25.598;2023-01-31T00:38:35;97838.88;;;0.21;100.00
9091;BME280;4581;42.416;25.598;2023-01-31T00:41:03;97845.88;;;0.22;100.00
9091;BME280;4581;42.416;25.598;2023-01-31T00:43:31;97846.06;;;0.30;100.00
9091;BME280;4581;42.416;25.598;2023-01-31T00:45:58;97837.66;;;0.25;100.00
9091;BME280;4581;42.416;25.598;2023-01-31T00:48:25;97836.09;;;0.22;100.00
9091;BME280;4581;42.416;25.598;2023-01-31T00:50:51;97846.19;;;0.28;100.00
9091;BME280;4581;42.416;25.598;2023-01-31T00:53:18;97845.09;;;0.31;100.00
9091;BME280;4581;42.416;25.598;2023-01-31T00:55:50;97828.09;;;0.33;100.00
9091;BME280;4581;42.416;25.598;2023-01-31T00:58:16;97836.75;;;0.35;100.00
9091;BME280;4581;42.416;25.598;2023-01-31T01:00:43;97838.69;;;0.33;100.00
9091;BME280;4581;42.416;25.598;2023-01-31T01:03:10;97837.84;;;0.33;100.00
9091;BME280;4581;42.416;25.598;2023-01-31T01:05:37;97837.81;;;0.44;100.00
9091;BME280;4581;42.416;25.598;2023-01-31T01:08:04;97822.47;;;0.27;100.00
9091;BME280;4581;42.416;25.598;2023-01-31T01:10:31;97827.69;;;0.38;100.00
9091;BME280;4581;42.416;25.598;2023-01-31T01:12:58;97829.78;;;0.34;100.00
9091;BME280;4581;42.416;25.598;2023-01-31T01:15:25;97822.78;;;0.33;100.00
9091;BME280;4581;42.416;25.598;2023-01-31T01:17:52;97823.91;;;0.31;100.00
9091;BME280;4581;42.416;25.598;2023-01-31T01:20:20;97835.19;;;0.33;100.00
9091;BME280;4581;42.416;25.598;2023-01-31T01:22:46;97827.91;;;0.46;100.00
9091;BME280;4581;42.416;25.598;2023-01-31T01:25:13;97822.28;;;0.39;100.00
9091;BME280;4581;42.416;25.598;2023-01-31T01:27:39;97825.69;;;0.51;100.00
9091;BME280;4581;42.416;25.598;2023-01-31T01:30:07;97813.13;;;0.53;100.00
9091;BME280;4581;42.416;25.598;2023-01-31T01:32:33;97823.31;;;0.48;100.00
9091;BME280;4581;42.416;25.598;2023-01-31T01:35:00;97818.19;;;0.56;100.00
9091;BME280;4581;42.416;25.598;2023-01-31T01:37:26;97818.31;;;0.55;100.00
9091;BME280;4581;42.416;25.598;2023-01-31T01:39:53;97827.13;;;0.55;100.00
9091;BME280;4581;42.416;25.598;2023-01-31T01:42:23;97806.75;;;0.56;100.00
9091;BME280;4581;42.416;25.598;2023-01-31T01:44:58;97822.97;;;0.62;100.00
9091;BME280;4581;42.416;25.598;2023-01-31T01:50:04;97816.81;;;0.62;100.00
9091;BME280;4581;42.416;25.598;2023-01-31T01:52:36;97812.09;;;0.65;100.00
9091;BME280;4581;42.416;25.598;2023-01-31T01:55:15;97822.97;;;0.62;100.00
9091;BME280;4581;42.416;25.598;2023-01-31T01:57:46;97829.00;;;0.64;100.00
9091;BME280;4581;42.416;25.598;2023-01-31T02:00:23;97814.47;;;0.68;100.00
9091;BME280;4581;42.416;25.598;2023-01-31T02:02:52;97819.66;;;0.70;100.00
9091;BME280;4581;42.416;25.598;2023-01-31T02:05:27;97824.38;;;0.66;100.00
9091;BME280;4581;42.416;25.598;2023-01-31T02:07:55;97825.34;;;0.65;100.00
9091;BME280;4581;42.416;25.598;2023-01-31T02:13:01;97820.13;;;0.54;100.00
9091;BME280;4581;42.416;25.598;2023-01-31T02:15:28;97830.94;;;0.62;100.00
9091;BME280;4581;42.416;25.598;2023-01-31T02:17:55;97829.03;;;0.53;100.00
9091;BME280;4581;42.416;25.598;2023-01-31T02:35:10;97824.59;;;0.33;100.00
9091;BME280;4581;42.416;25.598;2023-01-31T02:40:48;97813.94;;;0.44;100.00
9091;BME280;4581;42.416;25.598;2023-01-31T02:48:51;97801.31;;;0.36;100.00
9091;BME280;4581;42.416;25.598;2023-01-31T02:51:23;97789.16;;;0.34;100.00
9091;BME280;4581;42.416;25.598;2023-01-31T02:53:58;97792.00;;;0.42;100.00
9091;BME280;4581;42.416;25.598;2023-01-31T02:56:30;97789.44;;;0.52;100.00
9091;BME280;4581;42.416;25.598;2023-01-31T02:59:05;97795.13;;;0.47;100.00
9091;BME280;4581;42.416;25.598;2023-01-31T03:01:37;97792.19;;;0.50;100.00
9091;BME280;4581;42.416;25.598;2023-01-31T03:04:07;97796.16;;;0.56;100.00
9091;BME280;4581;42.416;25.598;2023-01-31T03:09:14;97802.81;;;0.50;100.00
9091;BME280;4581;42.416;25.598;2023-01-31T03:17:50;97788.47;;;0.32;100.00
9091;BME280;4581;42.416;25.598;2023-01-31T03:20:37;97784.78;;;0.23;100.00
9091;BME280;4581;42.416;25.598;2023-01-31T03:23:20;97792.34;;;0.28;100.00
9091;BME280;4581;42.416;25.598;2023-01-31T03:25:48;97797.13;;;0.34;100.00
9091;BME280;4581;42.416;25.598;2023-01-31T03:28:20;97803.66;;;0.30;100.00
9091;BME280;4581;42.416;25.598;2023-01-31T03:30:53;97808.63;;;0.44;100.00
9091;BME280;4581;42.416;25.598;2023-01-31T03:33:26;97808.63;;;0.44;100.00
9091;BME280;4581;42.416;25.598;2023-01-31T03:36:12;97807.25;;;0.50;100.00
9091;BME280;4581;42.416;25.598;2023-01-31T03:44:23;97801.00;;;0.51;100.00
9091;BME280;4581;42.416;25.598;2023-01-31T03:46:56;97805.72;;;0.47;100.00
9091;BME280;4581;42.416;25.598;2023-01-31T03:49:26;97803.19;;;0.45;100.00
9091;BME280;4581;42.416;25.598;2023-01-31T03:52:00;97807.91;;;0.42;100.00
9091;BME280;4581;42.416;25.598;2023-01-31T03:54:35;97811.72;;;0.49;100.00
9091;BME280;4581;42.416;25.598;2023-01-31T03:57:13;97808.94;;;0.51;100.00
9091;BME280;4581;42.416;25.598;2023-01-31T03:59:42;97818.25;;;0.45;100.00
9091;BME280;4581;42.416;25.598;2023-01-31T04:02:14;97816.84;;;0.41;100.00
9091;BME280;4581;42.416;25.598;2023-01-31T04:05:09;97826.94;;;0.47;100.00
9091;BME280;4581;42.416;25.598;2023-01-31T04:07:34;97823.94;;;0.40;100.00
9091;BME280;4581;42.416;25.598;2023-01-31T04:10:03;97821.44;;;0.39;100.00
9091;BME280;4581;42.416;25.598;2023-01-31T04:12:35;97817.22;;;0.36;100.00
9091;BME280;4581;42.416;25.598;2023-01-31T04:15:04;97814.38;;;0.28;100.00
9091;BME280;4581;42.416;25.598;2023-01-31T04:17:31;97822.22;;;0.30;100.00
9091;BME280;4581;42.416;25.598;2023-01-31T04:19:59;97825.78;;;0.40;100.00
9091;BME280;4581;42.416;25.598;2023-01-31T04:22:26;97825.50;;;0.43;100.00
9091;BME280;4581;42.416;25.598;2023-01-31T04:24:53;97811.34;;;0.33;100.00
9091;BME280;4581;42.416;25.598;2023-01-31T04:27:19;97824.84;;;0.30;100.00
9091;BME280;4581;42.416;25.598;2023-01-31T04:29:46;97816.91;;;0.30;100.00
9091;BME280;4581;42.416;25.598;2023-01-31T04:32:13;97824.56;;;0.44;100.00
9091;BME280;4581;42.416;25.598;2023-01-31T04:34:39;97825.97;;;0.48;100.00
9091;BME280;4581;42.416;25.598;2023-01-31T04:37:06;97827.97;;;0.56;100.00
9091;BME280;4581;42.416;25.598;2023-01-31T04:39:32;97820.84;;;0.56;100.00
9091;BME280;4581;42.416;25.598;2023-01-31T04:41:59;97825.13;;;0.47;100.00
9091;BME280;4581;42.416;25.598;2023-01-31T04:44:26;97820.59;;;0.38;100.00
9091;BME280;4581;42.416;25.598;2023-01-31T04:46:52;97818.31;;;0.34;100.00
9091;BME280;4581;42.416;25.598;2023-01-31T04:49:19;97825.78;;;0.19;100.00
9091;BME280;4581;42.416;25.598;2023-01-31T04:51:46;97830.22;;;0.19;100.00
9091;BME280;4581;42.416;25.598;2023-01-31T04:54:13;97837.34;;;0.18;100.00
9091;BME280;4581;42.416;25.598;2023-01-31T04:56:40;97830.22;;;0.19;100.00
9091;BME280;4581;42.416;25.598;2023-01-31T04:59:06;97825.78;;;0.19;100.00
9091;BME280;4581;42.416;25.598;2023-01-31T05:01:34;97814.97;;;0.32;100.00
9091;BME280;4581;42.416;25.598;2023-01-31T05:04:00;97820.00;;;0.35;100.00
9091;BME280;4581;42.416;25.598;2023-01-31T05:06:27;97811.88;;;0.27;100.00
9091;BME280;4581;42.416;25.598;2023-01-31T05:08:54;97821.94;;;0.33;100.00
9091;BME280;4581;42.416;25.598;2023-01-31T05:11:20;97808.88;;;0.41;100.00
9091;BME280;4581;42.416;25.598;2023-01-31T05:13:47;97812.13;;;0.24;100.00
9091;BME280;4581;42.416;25.598;2023-01-31T05:16:14;97817.22;;;0.36;100.00
9091;BME280;4581;42.416;25.598;2023-01-31T05:18:40;97827.59;;;0.39;100.00
9091;BME280;4581;42.416;25.598;2023-01-31T05:21:07;97822.41;;;0.38;100.00
9091;BME280;4581;42.416;25.598;2023-01-31T05:23:34;97813.94;;;0.44;100.00
9091;BME280;4581;42.416;25.598;2023-01-31T05:26:01;97833.00;;;0.59;100.00
9091;BME280;4581;42.416;25.598;2023-01-31T05:28:28;97831.28;;;0.48;100.00
9091;BME280;4581;42.416;25.598;2023-01-31T05:31:01;97834.44;;;0.42;100.00
9091;BME280;4581;42.416;25.598;2023-01-31T05:33:28;97850.22;;;0.43;100.00
9091;BME280;4581;42.416;25.598;2023-01-31T05:35:58;97856.38;;;0.44;100.00
9091;BME280;4581;42.416;25.598;2023-01-31T05:38:25;97863.72;;;0.61;100.00
9091;BME280;4581;42.416;25.598;2023-01-31T05:40:52;97877.63;;;1.05;95.19
9091;BME280;4581;42.416;25.598;2023-01-31T05:43:19;97872.50;;;1.43;91.03
9091;BME280;4581;42.416;25.598;2023-01-31T05:45:47;97886.00;;;1.89;86.39
9091;BME280;4581;42.416;25.598;2023-01-31T05:48:14;97887.28;;;2.05;85.67
9091;BME280;4581;42.416;25.598;2023-01-31T05:50:40;97886.63;;;2.22;84.08
9091;BME280;4581;42.416;25.598;2023-01-31T05:53:07;97895.84;;;2.37;82.34
9091;BME280;4581;42.416;25.598;2023-01-31T05:55:34;97879.22;;;2.45;82.28
9091;BME280;4581;42.416;25.598;2023-01-31T05:58:01;97882.97;;;2.52;82.28
9091;BME280;4581;42.416;25.598;2023-01-31T06:00:27;97886.19;;;2.55;82.15
9091;BME280;4581;42.416;25.598;2023-01-31T06:02:58;97892.75;;;2.61;82.14
9091;BME280;4581;42.416;25.598;2023-01-31T06:05:26;97902.00;;;2.66;82.51
9091;BME280;4581;42.416;25.598;2023-01-31T06:07:53;97898.91;;;2.71;81.93
9091;BME280;4581;42.416;25.598;2023-01-31T06:10:19;97892.47;;;2.73;81.98
9091;BME280;4581;42.416;25.598;2023-01-31T06:12:46;97905.34;;;2.78;81.43
9091;BME280;4581;42.416;25.598;2023-01-31T06:15:13;97900.31;;;2.85;81.29
9091;BME280;4581;42.416;25.598;2023-01-31T06:17:40;97894.16;;;2.84;81.12
9091;BME280;4581;42.416;25.598;2023-01-31T06:20:07;97887.44;;;2.80;80.87
9091;BME280;4581;42.416;25.598;2023-01-31T06:22:34;97903.09;;;2.93;80.79
9091;BME280;4581;42.416;25.598;2023-01-31T06:25:00;97902.81;;;2.96;81.12
9091;BME280;4581;42.416;25.598;2023-01-31T06:27:30;97911.75;;;2.95;80.47
9091;BME280;4581;42.416;25.598;2023-01-31T06:29:58;97916.78;;;3.07;80.25
9091;BME280;4581;42.416;25.598;2023-01-31T06:32:24;97907.66;;;3.10;80.11
9091;BME280;4581;42.416;25.598;2023-01-31T06:34:51;97904.44;;;3.16;79.53
9091;BME280;4581;42.416;25.598;2023-01-31T06:37:18;97903.84;;;3.22;78.87
9091;BME280;4581;42.416;25.598;2023-01-31T06:39:44;97909.03;;;3.23;80.08
9091;BME280;4581;42.416;25.598;2023-01-31T06:42:11;97913.09;;;3.27;79.98
9091;BME280;4581;42.416;25.598;2023-01-31T06:44:37;97913.75;;;3.29;80.26
9091;BME280;4581;42.416;25.598;2023-01-31T06:47:04;97930.03;;;3.36;78.89
9091;BME280;4581;42.416;25.598;2023-01-31T06:49:31;97920.22;;;3.37;78.04
9091;BME280;4581;42.416;25.598;2023-01-31T06:51:58;97927.59;;;3.43;77.74
9091;BME280;4581;42.416;25.598;2023-01-31T06:54:24;97936.31;;;3.45;77.46
9091;BME280;4581;42.416;25.598;2023-01-31T06:56:51;97947.34;;;3.50;77.58
9091;BME280;4581;42.416;25.598;2023-01-31T06:59:17;97953.09;;;3.55;77.36
9091;BME280;4581;42.416;25.598;2023-01-31T07:01:44;97961.56;;;3.31;80.34
9091;BME280;4581;42.416;25.598;2023-01-31T07:04:11;97949.47;;;2.61;83.90
9091;BME280;4581;42.416;25.598;2023-01-31T07:06:37;97952.94;;;2.14;88.13
9091;BME280;4581;42.416;25.598;2023-01-31T07:09:04;97961.88;;;2.03;89.61
9091;BME280;4581;42.416;25.598;2023-01-31T07:11:31;97968.00;;;1.84;91.34
9091;BME280;4581;42.416;25.598;2023-01-31T07:13:57;97965.16;;;1.76;91.23
9091;BME280;4581;42.416;25.598;2023-01-31T07:16:24;97949.28;;;1.56;92.48
9091;BME280;4581;42.416;25.598;2023-01-31T07:18:54;97959.91;;;1.56;93.46
9091;BME280;4581;42.416;25.598;2023-01-31T07:21:22;97964.53;;;1.63;93.57
9091;BME280;4581;42.416;25.598;2023-01-31T07:23:49;97979.63;;;1.63;94.68
9091;BME280;4581;42.416;25.598;2023-01-31T07:26:16;97973.09;;;1.67;94.24
9091;BME280;4581;42.416;25.598;2023-01-31T07:28:43;97981.22;;;1.75;93.99
9091;BME280;4581;42.416;25.598;2023-01-31T07:31:11;97984.69;;;1.66;94.95
9091;BME280;4581;42.416;25.598;2023-01-31T07:33:39;97983.03;;;1.74;93.02
9091;BME280;4581;42.416;25.598;2023-01-31T07:36:06;97980.50;;;1.73;93.16
9091;BME280;4581;42.416;25.598;2023-01-31T07:38:34;97980.03;;;1.88;93.71
9091;BME280;4581;42.416;25.598;2023-01-31T07:41:02;97983.81;;;2.05;93.78
9091;BME280;4581;42.416;25.598;2023-01-31T07:43:31;97982.69;;;1.88;92.37
9091;BME280;4581;42.416;25.598;2023-01-31T07:45:57;97979.91;;;2.09;91.34
9091;BME280;4581;42.416;25.598;2023-01-31T07:48:24;97971.09;;;2.09;91.86
9091;BME280;4581;42.416;25.598;2023-01-31T07:50:52;97972.41;;;2.24;91.21
9091;BME280;4581;42.416;25.598;2023-01-31T07:53:23;97969.75;;;2.24;91.58
9091;BME280;4581;42.416;25.598;2023-01-31T07:55:49;97981.81;;;2.28;90.56
9091;BME280;4581;42.416;25.598;2023-01-31T07:58:16;97977.03;;;2.31;90.61
9091;BME280;4581;42.416;25.598;2023-01-31T08:00:43;97974.28;;;2.52;90.29
9091;BME280;4581;42.416;25.598;2023-01-31T08:03:29;97986.59;;;2.72;90.53
9091;BME280;4581;42.416;25.598;2023-01-31T08:06:01;97978.19;;;2.67;89.72
9091;BME280;4581;42.416;25.598;2023-01-31T08:08:28;97982.22;;;2.81;89.32
9091;BME280;4581;42.416;25.598;2023-01-31T08:10:55;97981.69;;;2.97;89.30
9091;BME280;4581;42.416;25.598;2023-01-31T08:13:21;97981.53;;;3.08;85.60
9091;BME280;4581;42.416;25.598;2023-01-31T08:15:50;97989.78;;;3.24;84.73
9091;BME280;4581;42.416;25.598;2023-01-31T08:18:17;97998.31;;;3.27;84.27
9091;BME280;4581;42.416;25.598;2023-01-31T08:20:44;97998.03;;;3.30;84.15
9091;BME280;4581;42.416;25.598;2023-01-31T08:23:11;97995.47;;;3.48;84.04
9091;BME280;4581;42.416;25.598;2023-01-31T08:25:38;98006.06;;;3.67;81.80
9091;BME280;4581;42.416;25.598;2023-01-31T08:28:04;98007.69;;;3.88;80.74
9091;BME280;4581;42.416;25.598;2023-01-31T08:30:31;98011.53;;;4.03;79.93
9091;BME280;4581;42.416;25.598;2023-01-31T08:32:58;98009.38;;;4.16;78.82
9091;BME280;4581;42.416;25.598;2023-01-31T08:35:25;98015.41;;;4.45;76.98
9091;BME280;4581;42.416;25.598;2023-01-31T08:37:53;98028.00;;;4.70;74.57
9091;BME280;4581;42.416;25.598;2023-01-31T08:40:35;98019.75;;;4.82;72.77
9091;BME280;4581;42.416;25.598;2023-01-31T08:43:02;98029.13;;;4.86;73.16
9091;BME280;4581;42.416;25.598;2023-01-31T08:45:29;98034.31;;;4.69;72.80
9091;BME280;4581;42.416;25.598;2023-01-31T08:47:58;98034.25;;;4.79;73.28
9091;BME280;4581;42.416;25.598;2023-01-31T08:50:27;98039.50;;;4.71;71.69
9091;BME280;4581;42.416;25.598;2023-01-31T08:52:57;98056.53;;;4.88;72.83
9091;BME280;4581;42.416;25.598;2023-01-31T08:55:24;98054.31;;;4.83;72.72
9091;BME280;4581;42.416;25.598;2023-01-31T08:57:52;98062.19;;;4.85;73.49
9091;BME280;4581;42.416;25.598;2023-01-31T09:00:25;98064.78;;;4.77;71.68
9091;BME280;4581;42.416;25.598;2023-01-31T09:02:54;98056.69;;;4.68;71.62
9091;BME280;4581;42.416;25.598;2023-01-31T09:05:22;98049.03;;;4.73;72.99
9091;BME280;4581;42.416;25.598;2023-01-31T09:07:49;98070.72;;;4.70;72.52
9091;BME280;4581;42.416;25.598;2023-01-31T09:10:17;98073.91;;;4.74;72.64
9091;BME280;4581;42.416;25.598;2023-01-31T09:12:44;98072.75;;;4.59;73.37
9091;BME280;4581;42.416;25.598;2023-01-31T09:15:11;98068.34;;;4.67;72.86
9091;BME280;4581;42.416;25.598;2023-01-31T09:17:39;98059.94;;;4.62;71.11
9091;BME280;4581;42.416;25.598;2023-01-31T09:20:07;98073.81;;;4.66;73.62
9091;BME280;4581;42.416;25.598;2023-01-31T09:22:36;98063.69;;;4.69;73.69
9091;BME280;4581;42.416;25.598;2023-01-31T09:25:04;98061.41;;;4.75;75.57
9091;BME280;4581;42.416;25.598;2023-01-31T09:27:30;98052.38;;;4.85;76.19
9091;BME280;4581;42.416;25.598;2023-01-31T09:29:57;98045.31;;;5.19;78.17
9091;BME280;4581;42.416;25.598;2023-01-31T09:32:24;98051.03;;;5.42;78.59
9091;BME280;4581;42.416;25.598;2023-01-31T09:34:50;98043.19;;;5.66;76.21
9091;BME280;4581;42.416;25.598;2023-01-31T09:37:17;98047.28;;;5.79;73.99
9091;BME280;4581;42.416;25.598;2023-01-31T09:39:44;98055.16;;;6.06;74.62
9091;BME280;4581;42.416;25.598;2023-01-31T09:42:24;98060.59;;;6.22;71.33
9091;BME280;4581;42.416;25.598;2023-01-31T09:45:14;98047.75;;;6.76;69.83
9091;BME280;4581;42.416;25.598;2023-01-31T09:47:49;98058.22;;;7.11;67.70
9091;BME280;4581;42.416;25.598;2023-01-31T09:53:02;98063.50;;;8.32;58.72
9091;BME280;4581;42.416;25.598;2023-01-31T10:01:25;98036.94;;;6.93;63.84
9091;BME280;4581;42.416;25.598;2023-01-31T10:06:57;98036.88;;;9.61;53.11
9091;BME280;4581;42.416;25.598;2023-01-31T10:09:33;98023.78;;;10.10;50.96
9091;BME280;4581;42.416;25.598;2023-01-31T10:12:11;98014.88;;;10.53;50.06
9091;BME280;4581;42.416;25.598;2023-01-31T10:14:44;98030.28;;;11.52;47.16
9091;BME280;4581;42.416;25.598;2023-01-31T10:17:22;98009.50;;;11.95;46.60
9091;BME280;4581;42.416;25.598;2023-01-31T10:22:37;97998.78;;;10.45;47.29
9091;BME280;4581;42.416;25.598;2023-01-31T10:27:47;98000.28;;;8.83;49.82
9091;BME280;4581;42.416;25.598;2023-01-31T10:30:20;97995.25;;;8.02;51.93
9091;BME280;4581;42.416;25.598;2023-01-31T10:32:54;97994.50;;;7.86;53.38
9091;BME280;4581;42.416;25.598;2023-01-31T10:35:39;97998.91;;;7.38;55.11
9091;BME280;4581;42.416;25.598;2023-01-31T10:38:18;97980.66;;;6.85;56.05
9091;BME280;4581;42.416;25.598;2023-01-31T10:40:54;97983.06;;;6.46;58.65
9091;BME280;4581;42.416;25.598;2023-01-31T10:43:46;97984.03;;;6.29;60.33
9091;BME280;4581;42.416;25.598;2023-01-31T10:46:15;97986.31;;;6.90;58.39
9091;BME280;4581;42.416;25.598;2023-01-31T10:48:43;97975.81;;;7.21;56.82
9091;BME280;4581;42.416;25.598;2023-01-31T10:56:56;97973.09;;;9.47;51.55
9091;BME280;4581;42.416;25.598;2023-01-31T10:59:38;97972.94;;;9.63;50.51
9091;BME280;4581;42.416;25.598;2023-01-31T11:02:18;97981.75;;;11.16;46.98
9091;BME280;4581;42.416;25.598;2023-01-31T11:04:46;97979.22;;;11.57;45.46
9091;BME280;4581;42.416;25.598;2023-01-31T11:07:14;97986.00;;;10.68;46.58
9091;BME280;4581;42.416;25.598;2023-01-31T11:09:52;97978.44;;;9.09;49.05
9091;BME280;4581;42.416;25.598;2023-01-31T11:12:20;97976.31;;;10.09;48.67
9091;BME280;4581;42.416;25.598;2023-01-31T11:15:05;97989.03;;;10.59;46.67
9091;BME280;4581;42.416;25.598;2023-01-31T11:17:35;97976.44;;;9.63;49.06
9091;BME280;4581;42.416;25.598;2023-01-31T11:20:03;97989.78;;;8.97;51.99
9091;BME280;4581;42.416;25.598;2023-01-31T11:22:34;97982.28;;;8.22;53.28
9091;BME280;4581;42.416;25.598;2023-01-31T11:25:03;97998.34;;;7.75;53.28
9091;BME280;4581;42.416;25.598;2023-01-31T11:27:36;97995.56;;;7.36;55.39
9091;BME280;4581;42.416;25.598;2023-01-31T11:30:04;97987.19;;;7.23;55.04
9091;BME280;4581;42.416;25.598;2023-01-31T11:32:35;97993.56;;;7.06;56.05
9091;BME280;4581;42.416;25.598;2023-01-31T11:40:38;97984.66;;;6.73;57.14
9091;BME280;4581;42.416;25.598;2023-01-31T11:45:58;97977.88;;;6.45;58.41
9091;BME280;4581;42.416;25.598;2023-01-31T11:48:30;97978.22;;;6.42;60.02
9091;BME280;4581;42.416;25.598;2023-01-31T11:51:02;97976.75;;;6.05;61.69
9091;BME280;4581;42.416;25.598;2023-01-31T11:56:10;97981.72;;;6.00;64.45
9091;BME280;4581;42.416;25.598;2023-01-31T11:58:39;97976.81;;;5.88;64.36
9091;BME280;4581;42.416;25.598;2023-01-31T12:01:18;97984.84;;;5.88;65.82
9091;BME280;4581;42.416;25.598;2023-01-31T12:03:58;97977.84;;;5.95;65.86
9091;BME280;4581;42.416;25.598;2023-01-31T12:06:34;97987.19;;;5.91;65.30
9091;BME280;4581;42.416;25.598;2023-01-31T12:09:19;97980.34;;;5.88;67.18
9091;BME280;4581;42.416;25.598;2023-01-31T12:14:18;97981.09;;;5.81;68.50
9091;BME280;4581;42.416;25.598;2023-01-31T12:16:46;97980.19;;;5.98;69.08
9091;BME280;4581;42.416;25.598;2023-01-31T12:22:01;97976.25;;;6.10;67.58
9091;BME280;4581;42.416;25.598;2023-01-31T12:24:47;97993.75;;;5.96;67.03
9091;BME280;4581;42.416;25.598;2023-01-31T12:35:37;97984.09;;;6.45;64.67
9091;BME280;4581;42.416;25.598;2023-01-31T12:38:17;97991.53;;;6.26;65.83
9091;BME280;4581;42.416;25.598;2023-01-31T12:51:59;97993.13;;;10.55;51.81
9091;BME280;4581;42.416;25.598;2023-01-31T13:03:27;98006.97;;;8.87;52.92
9091;BME280;4581;42.416;25.598;2023-01-31T13:06:13;98001.81;;;8.00;55.38
9091;BME280;4581;42.416;25.598;2023-01-31T13:11:47;97995.03;;;9.73;50.63
9091;BME280;4581;42.416;25.598;2023-01-31T13:14:24;98003.22;;;11.67;44.57
9091;BME280;4581;42.416;25.598;2023-01-31T13:16:55;98004.97;;;12.02;44.21
9091;BME280;4581;42.416;25.598;2023-01-31T13:19:31;97997.69;;;10.90;45.72
9091;BME280;4581;42.416;25.598;2023-01-31T13:22:03;98005.88;;;9.65;48.82
9091;BME280;4581;42.416;25.598;2023-01-31T13:24:39;98009.94;;;10.57;48.62
9091;BME280;4581;42.416;25.598;2023-01-31T13:27:20;98012.72;;;11.84;45.88
9091;BME280;4581;42.416;25.598;2023-01-31T13:29:56;98032.88;;;11.03;45.10
9091;BME280;4581;42.416;25.598;2023-01-31T13:32:33;98028.72;;;9.69;49.39
9091;BME280;4581;42.416;25.598;2023-01-31T13:35:17;98025.06;;;9.24;52.31
9091;BME280;4581;42.416;25.598;2023-01-31T13:37:49;98018.94;;;10.05;51.43
9091;BME280;4581;42.416;25.598;2023-01-31T13:40:22;98018.59;;;9.33;51.54
9091;BME280;4581;42.416;25.598;2023-01-31T13:42:50;98007.81;;;8.18;54.13
9091;BME280;4581;42.416;25.598;2023-01-31T13:45:28;98006.13;;;7.38;56.03
9091;BME280;4581;42.416;25.598;2023-01-31T13:48:07;98009.28;;;6.85;57.93
9091;BME280;4581;42.416;25.598;2023-01-31T13:53:44;98000.56;;;7.07;56.76
9091;BME280;4581;42.416;25.598;2023-01-31T13:56:20;98012.66;;;7.35;55.21
9091;BME280;4581;42.416;25.598;2023-01-31T13:58:49;98006.41;;;6.86;56.72
9091;BME280;4581;42.416;25.598;2023-01-31T14:01:29;98004.78;;;6.35;58.60
9091;BME280;4581;42.416;25.598;2023-01-31T14:32:47;98027.31;;;5.91;65.25
9091;BME280;4581;42.416;25.598;2023-01-31T14:54:51;98060.81;;;4.81;78.73
9091;BME280;4581;42.416;25.598;2023-01-31T14:57:27;98064.66;;;4.51;80.33
9091;BME280;4581;42.416;25.598;2023-01-31T15:00:28;98068.78;;;4.45;81.14
9091;BME280;4581;42.416;25.598;2023-01-31T15:03:13;98064.03;;;4.30;82.08
9091;BME280;4581;42.416;25.598;2023-01-31T15:05:46;98071.81;;;4.23;82.98
9091;BME280;4581;42.416;25.598;2023-01-31T15:11:06;98069.78;;;3.98;86.41
9091;BME280;4581;42.416;25.598;2023-01-31T15:13:53;98071.84;;;3.76;88.04
9091;BME280;4581;42.416;25.598;2023-01-31T15:16:28;98074.25;;;3.60;89.51
9091;BME280;4581;42.416;25.598;2023-01-31T15:19:51;98084.94;;;3.60;91.01
9091;BME280;4581;42.416;25.598;2023-01-31T15:22:20;98094.31;;;3.64;91.95
9091;BME280;4581;42.416;25.598;2023-01-31T15:24:53;98104.44;;;3.61;92.82
9091;BME280;4581;42.416;25.598;2023-01-31T15:27:25;98117.88;;;3.59;94.44
9091;BME280;4581;42.416;25.598;2023-01-31T15:30:35;98113.69;;;3.57;96.58
9091;BME280;4581;42.416;25.598;2023-01-31T15:35:51;98114.66;;;3.08;100.00
9091;BME280;4581;42.416;25.598;2023-01-31T15:41:14;98126.13;;;2.89;100.00
9091;BME280;4581;42.416;25.598;2023-01-31T15:43:42;98116.72;;;2.75;100.00
9091;BME280;4581;42.416;25.598;2023-01-31T15:46:29;98115.31;;;2.71;100.00
9091;BME280;4581;42.416;25.598;2023-01-31T15:48:57;98121.59;;;2.70;100.00
9091;BME280;4581;42.416;25.598;2023-01-31T15:51:24;98127.66;;;2.72;100.00
9091;BME280;4581;42.416;25.598;2023-01-31T15:54:05;98125.91;;;2.62;100.00
9091;BME280;4581;42.416;25.598;2023-01-31T15:56:38;98134.63;;;2.64;100.00
9091;BME280;4581;42.416;25.598;2023-01-31T15:59:15;98131.97;;;2.73;100.00
9091;BME280;4581;42.416;25.598;2023-01-31T16:01:47;98137.03;;;2.76;100.00
9091;BME280;4581;42.416;25.598;2023-01-31T16:04:16;98152.84;;;2.78;100.00
9091;BME280;4581;42.416;25.598;2023-01-31T16:06:44;98154.44;;;2.80;100.00
9091;BME280;4581;42.416;25.598;2023-01-31T16:09:23;98150.47;;;2.75;100.00
9091;BME280;4581;42.416;25.598;2023-01-31T16:11:51;98137.28;;;2.64;100.00
9091;BME280;4581;42.416;25.598;2023-01-31T16:14:20;98140.50;;;2.67;100.00
9091;BME280;4581;42.416;25.598;2023-01-31T16:16:50;98138.81;;;2.66;100.00
9091;BME280;4581;42.416;25.598;2023-01-31T16:19:33;98129.53;;;2.51;100.00
9091;BME280;4581;42.416;25.598;2023-01-31T16:22:01;98148.69;;;2.45;100.00
9091;BME280;4581;42.416;25.598;2023-01-31T16:24:28;98140.41;;;2.39;100.00
9091;BME280;4581;42.416;25.598;2023-01-31T16:29:40;98153.94;;;2.26;100.00
9091;BME280;4581;42.416;25.598;2023-01-31T16:32:24;98161.47;;;2.21;100.00
9091;BME280;4581;42.416;25.598;2023-01-31T16:40:00;98159.16;;;2.07;100.00